sensor_id;sensor_type;location;lat;lon;timestamp;P1;durP1;ratioP1;P2;durP2;ratioP2
38783;SDS011;24531;45.502;12.238;2024-01-15T00:02:17;103.45;;;60.33;;
38783;SDS011;24531;45.502;12.238;2024-01-15T00:04:43;105.88;;;60.70;;
38783;SDS011;24531;45.502;12.238;2024-01-15T00:07:09;99.30;;;60.78;;
38783;SDS011;24531;45.502;12.238;2024-01-15T00:09:35;107.32;;;60.35;;
38783;SDS011;24531;45.502;12.238;2024-01-15T00:12:01;103.72;;;62.53;;
38783;SDS011;24531;45.502;12.238;2024-01-15T00:14:27;102.72;;;61.10;;
38783;SDS011;24531;45.502;12.238;2024-01-15T00:16:53;101.13;;;63.22;;
38783;SDS011;24531;45.502;12.238;2024-01-15T00:19:23;105.18;;;60.75;;
38783;SDS011;24531;45.502;12.238;2024-01-15T00:21:49;111.13;;;62.38;;
38783;SDS011;24531;45.502;12.238;2024-01-15T00:24:15;104.70;;;59.75;;
38783;SDS011;24531;45.502;12.238;2024-01-15T00:26:40;107.60;;;62.97;;
38783;SDS011;24531;45.502;12.238;2024-01-15T00:29:06;107.57;;;62.72;;
38783;SDS011;24531;45.502;12.238;2024-01-15T00:31:33;103.95;;;61.20;;
38783;SDS011;24531;45.502;12.238;2024-01-15T00:33:58;102.78;;;60.95;;
38783;SDS011;24531;45.502;12.238;2024-01-15T00:36:24;100.00;;;59.78;;
38783;SDS011;24531;45.502;12.238;2024-01-15T00:38:50;100.07;;;60.75;;
38783;SDS011;24531;45.502;12.238;2024-01-15T00:41:16;111.22;;;63.10;;
38783;SDS011;24531;45.502;12.238;2024-01-15T00:43:43;105.57;;;62.47;;
38783;SDS011;24531;45.502;12.238;2024-01-15T00:46:14;100.82;;;60.78;;
38783;SDS011;24531;45.502;12.238;2024-01-15T00:48:39;99.25;;;59.95;;
38783;SDS011;24531;45.502;12.238;2024-01-15T00:51:05;101.25;;;59.42;;
38783;SDS011;24531;45.502;12.238;2024-01-15T00:53:31;100.30;;;59.22;;
38783;SDS011;24531;45.502;12.238;2024-01-15T00:55:56;99.80;;;60.25;;
38783;SDS011;24531;45.502;12.238;2024-01-15T00:58:22;100.32;;;59.05;;
38783;SDS011;24531;45.502;12.238;2024-01-15T01:00:48;99.65;;;58.72;;
38783;SDS011;24531;45.502;12.238;2024-01-15T01:03:13;98.22;;;59.00;;
38783;SDS011;24531;45.502;12.238;2024-01-15T01:05:39;96.00;;;58.58;;
38783;SDS011;24531;45.502;12.238;2024-01-15T01:08:05;98.55;;;57.65;;
38783;SDS011;24531;45.502;12.238;2024-01-15T01:10:30;95.95;;;58.70;;
38783;SDS011;24531;45.502;12.238;2024-01-15T01:12:56;99.60;;;59.28;;
38783;SDS011;24531;45.502;12.238;2024-01-15T01:15:22;101.47;;;58.00;;
38783;SDS011;24531;45.502;12.238;2024-01-15T01:17:47;99.53;;;58.70;;
38783;SDS011;24531;45.502;12.238;2024-01-15T01:20:13;99.05;;;58.75;;
38783;SDS011;24531;45.502;12.238;2024-01-15T01:22:40;96.72;;;57.17;;
38783;SDS011;24531;45.502;12.238;2024-01-15T01:25:06;90.43;;;55.28;;
38783;SDS011;24531;45.502;12.238;2024-01-15T01:27:32;102.38;;;57.72;;
38783;SDS011;24531;45.502;12.238;2024-01-15T01:29:58;90.72;;;56.40;;
38783;SDS011;24531;45.502;12.238;2024-01-15T01:32:23;100.18;;;56.88;;
38783;SDS011;24531;45.502;12.238;2024-01-15T01:34:49;97.20;;;56.88;;
38783;SDS011;24531;45.502;12.238;2024-01-15T01:37:14;99.85;;;57.28;;
38783;SDS011;24531;45.502;12.238;2024-01-15T01:39:43;93.53;;;56.28;;
38783;SDS011;24531;45.502;12.238;2024-01-15T01:42:09;97.07;;;57.58;;
38783;SDS011;24531;45.502;12.238;2024-01-15T01:44:36;96.50;;;56.05;;
38783;SDS011;24531;45.502;12.238;2024-01-15T01:47:02;99.00;;;57.25;;
38783;SDS011;24531;45.502;12.238;2024-01-15T01:49:29;99.20;;;55.30;;
38783;SDS011;24531;45.502;12.238;2024-01-15T01:51:56;94.55;;;55.83;;
38783;SDS011;24531;45.502;12.238;2024-01-15T01:54:23;103.35;;;59.38;;
38783;SDS011;24531;45.502;12.238;2024-01-15T01:56:50;94.00;;;57.63;;
38783;SDS011;24531;45.502;12.238;2024-01-15T01:59:16;97.18;;;59.97;;
38783;SDS011;24531;45.502;12.238;2024-01-15T02:01:42;100.53;;;58.42;;
38783;SDS011;24531;45.502;12.238;2024-01-15T02:04:09;103.68;;;58.83;;
38783;SDS011;24531;45.502;12.238;2024-01-15T02:06:35;101.10;;;57.65;;
38783;SDS011;24531;45.502;12.238;2024-01-15T02:09:01;97.47;;;58.33;;
38783;SDS011;24531;45.502;12.238;2024-01-15T02:11:26;97.80;;;56.85;;
38783;SDS011;24531;45.502;12.238;2024-01-15T02:13:52;100.63;;;58.50;;
38783;SDS011;24531;45.502;12.238;2024-01-15T02:16:18;102.45;;;59.80;;
38783;SDS011;24531;45.502;12.238;2024-01-15T02:18:44;101.90;;;60.22;;
38783;SDS011;24531;45.502;12.238;2024-01-15T02:21:11;100.00;;;59.97;;
38783;SDS011;24531;45.502;12.238;2024-01-15T02:23:37;101.18;;;59.83;;
38783;SDS011;24531;45.502;12.238;2024-01-15T02:26:04;95.75;;;59.70;;
38783;SDS011;24531;45.502;12.238;2024-01-15T02:28:30;99.57;;;61.33;;
38783;SDS011;24531;45.502;12.238;2024-01-15T02:30:57;100.90;;;58.63;;
38783;SDS011;24531;45.502;12.238;2024-01-15T02:33:23;101.78;;;59.97;;
38783;SDS011;24531;45.502;12.238;2024-01-15T02:35:48;99.70;;;61.47;;
38783;SDS011;24531;45.502;12.238;2024-01-15T02:38:17;108.18;;;62.10;;
38783;SDS011;24531;45.502;12.238;2024-01-15T02:40:43;108.07;;;62.80;;
38783;SDS011;24531;45.502;12.238;2024-01-15T02:43:09;106.90;;;60.47;;
38783;SDS011;24531;45.502;12.238;2024-01-15T02:45:35;102.35;;;59.30;;
38783;SDS011;24531;45.502;12.238;2024-01-15T02:48:01;101.93;;;61.10;;
38783;SDS011;24531;45.502;12.238;2024-01-15T02:50:27;97.32;;;59.13;;
38783;SDS011;24531;45.502;12.238;2024-01-15T02:52:53;103.68;;;62.92;;
38783;SDS011;24531;45.502;12.238;2024-01-15T02:55:18;102.63;;;61.38;;
38783;SDS011;24531;45.502;12.238;2024-01-15T02:57:44;101.90;;;62.80;;
38783;SDS011;24531;45.502;12.238;2024-01-15T03:00:10;108.32;;;62.53;;
38783;SDS011;24531;45.502;12.238;2024-01-15T03:02:36;102.38;;;59.80;;
38783;SDS011;24531;45.502;12.238;2024-01-15T03:05:09;104.90;;;61.40;;
38783;SDS011;24531;45.502;12.238;2024-01-15T03:07:35;111.80;;;64.15;;
38783;SDS011;24531;45.502;12.238;2024-01-15T03:10:00;104.38;;;60.35;;
38783;SDS011;24531;45.502;12.238;2024-01-15T03:12:26;102.85;;;60.90;;
38783;SDS011;24531;45.502;12.238;2024-01-15T03:14:52;102.95;;;61.75;;
38783;SDS011;24531;45.502;12.238;2024-01-15T03:17:17;104.53;;;60.42;;
38783;SDS011;24531;45.502;12.238;2024-01-15T03:19:43;98.18;;;57.78;;
38783;SDS011;24531;45.502;12.238;2024-01-15T03:22:08;106.13;;;61.75;;
38783;SDS011;24531;45.502;12.238;2024-01-15T03:24:35;95.95;;;57.72;;
38783;SDS011;24531;45.502;12.238;2024-01-15T03:27:00;94.60;;;58.33;;
38783;SDS011;24531;45.502;12.238;2024-01-15T03:29:26;100.45;;;59.60;;
38783;SDS011;24531;45.502;12.238;2024-01-15T03:31:52;99.57;;;57.08;;
38783;SDS011;24531;45.502;12.238;2024-01-15T03:34:18;95.38;;;58.15;;
38783;SDS011;24531;45.502;12.238;2024-01-15T03:36:43;97.65;;;58.67;;
38783;SDS011;24531;45.502;12.238;2024-01-15T03:39:09;101.32;;;60.50;;
38783;SDS011;24531;45.502;12.238;2024-01-15T03:41:35;101.05;;;58.38;;
38783;SDS011;24531;45.502;12.238;2024-01-15T03:44:00;99.70;;;56.90;;
38783;SDS011;24531;45.502;12.238;2024-01-15T03:46:26;98.75;;;56.65;;
38783;SDS011;24531;45.502;12.238;2024-01-15T03:48:52;97.63;;;58.83;;
38783;SDS011;24531;45.502;12.238;2024-01-15T03:51:18;97.70;;;55.95;;
38783;SDS011;24531;45.502;12.238;2024-01-15T03:53:43;95.93;;;57.38;;
38783;SDS011;24531;45.502;12.238;2024-01-15T03:56:09;99.13;;;58.58;;
38783;SDS011;24531;45.502;12.238;2024-01-15T03:58:35;96.70;;;57.75;;
38783;SDS011;24531;45.502;12.238;2024-01-15T04:01:00;98.57;;;56.05;;
38783;SDS011;24531;45.502;12.238;2024-01-15T04:03:26;102.75;;;60.13;;
38783;SDS011;24531;45.502;12.238;2024-01-15T04:05:51;101.07;;;57.67;;
38783;SDS011;24531;45.502;12.238;2024-01-15T04:08:17;98.78;;;56.97;;
38783;SDS011;24531;45.502;12.238;2024-01-15T04:10:42;99.18;;;58.47;;
38783;SDS011;24531;45.502;12.238;2024-01-15T04:13:08;96.72;;;56.50;;
38783;SDS011;24531;45.502;12.238;2024-01-15T04:15:34;98.25;;;57.40;;
38783;SDS011;24531;45.502;12.238;2024-01-15T04:18:01;98.18;;;58.30;;
38783;SDS011;24531;45.502;12.238;2024-01-15T04:20:27;101.55;;;56.88;;
38783;SDS011;24531;45.502;12.238;2024-01-15T04:22:53;97.47;;;57.38;;
38783;SDS011;24531;45.502;12.238;2024-01-15T04:25:19;95.47;;;55.92;;
38783;SDS011;24531;45.502;12.238;2024-01-15T04:27:44;98.20;;;57.58;;
38783;SDS011;24531;45.502;12.238;2024-01-15T04:30:10;99.75;;;59.95;;
38783;SDS011;24531;45.502;12.238;2024-01-15T04:32:36;102.45;;;58.42;;
38783;SDS011;24531;45.502;12.238;2024-01-15T04:35:01;101.18;;;56.83;;
38783;SDS011;24531;45.502;12.238;2024-01-15T04:37:27;97.28;;;56.15;;
38783;SDS011;24531;45.502;12.238;2024-01-15T04:39:53;102.03;;;59.08;;
38783;SDS011;24531;45.502;12.238;2024-01-15T04:42:20;103.05;;;57.97;;
38783;SDS011;24531;45.502;12.238;2024-01-15T04:44:49;94.63;;;56.92;;
38783;SDS011;24531;45.502;12.238;2024-01-15T04:47:14;101.15;;;57.13;;
38783;SDS011;24531;45.502;12.238;2024-01-15T04:49:40;98.20;;;57.13;;
38783;SDS011;24531;45.502;12.238;2024-01-15T04:52:06;93.57;;;56.28;;
38783;SDS011;24531;45.502;12.238;2024-01-15T04:54:32;95.50;;;57.13;;
38783;SDS011;24531;45.502;12.238;2024-01-15T04:56:57;102.55;;;57.50;;
38783;SDS011;24531;45.502;12.238;2024-01-15T04:59:23;95.55;;;55.45;;
38783;SDS011;24531;45.502;12.238;2024-01-15T05:01:48;90.40;;;54.33;;
38783;SDS011;24531;45.502;12.238;2024-01-15T05:04:14;100.80;;;57.53;;
38783;SDS011;24531;45.502;12.238;2024-01-15T05:06:40;89.25;;;52.60;;
38783;SDS011;24531;45.502;12.238;2024-01-15T05:09:05;87.38;;;50.28;;
38783;SDS011;24531;45.502;12.238;2024-01-15T05:11:32;91.88;;;53.70;;
38783;SDS011;24531;45.502;12.238;2024-01-15T05:13:57;82.60;;;50.88;;
38783;SDS011;24531;45.502;12.238;2024-01-15T05:16:23;86.53;;;53.63;;
38783;SDS011;24531;45.502;12.238;2024-01-15T05:18:49;93.25;;;52.58;;
38783;SDS011;24531;45.502;12.238;2024-01-15T05:21:14;90.40;;;52.10;;
38783;SDS011;24531;45.502;12.238;2024-01-15T05:23:40;89.18;;;50.75;;
38783;SDS011;24531;45.502;12.238;2024-01-15T05:26:05;84.40;;;52.20;;
38783;SDS011;24531;45.502;12.238;2024-01-15T05:28:31;87.35;;;50.88;;
38783;SDS011;24531;45.502;12.238;2024-01-15T05:30:57;89.43;;;49.72;;
38783;SDS011;24531;45.502;12.238;2024-01-15T05:33:23;89.10;;;49.35;;
38783;SDS011;24531;45.502;12.238;2024-01-15T05:35:48;90.30;;;52.83;;
38783;SDS011;24531;45.502;12.238;2024-01-15T05:38:15;86.32;;;50.20;;
38783;SDS011;24531;45.502;12.238;2024-01-15T05:40:41;86.45;;;51.22;;
38783;SDS011;24531;45.502;12.238;2024-01-15T05:43:07;85.72;;;50.83;;
38783;SDS011;24531;45.502;12.238;2024-01-15T05:45:33;88.13;;;51.40;;
38783;SDS011;24531;45.502;12.238;2024-01-15T05:48:00;85.43;;;50.58;;
38783;SDS011;24531;45.502;12.238;2024-01-15T05:50:26;82.78;;;50.33;;
38783;SDS011;24531;45.502;12.238;2024-01-15T05:52:51;90.80;;;51.58;;
38783;SDS011;24531;45.502;12.238;2024-01-15T05:55:17;91.05;;;51.30;;
38783;SDS011;24531;45.502;12.238;2024-01-15T05:57:43;89.45;;;52.80;;
38783;SDS011;24531;45.502;12.238;2024-01-15T06:00:10;84.78;;;48.22;;
38783;SDS011;24531;45.502;12.238;2024-01-15T06:02:39;82.22;;;48.58;;
38783;SDS011;24531;45.502;12.238;2024-01-15T06:05:05;88.90;;;52.83;;
38783;SDS011;24531;45.502;12.238;2024-01-15T06:07:31;99.72;;;56.50;;
38783;SDS011;24531;45.502;12.238;2024-01-15T06:09:58;94.43;;;53.95;;
38783;SDS011;24531;45.502;12.238;2024-01-15T06:12:24;90.78;;;54.03;;
38783;SDS011;24531;45.502;12.238;2024-01-15T06:14:50;102.50;;;59.50;;
38783;SDS011;24531;45.502;12.238;2024-01-15T06:17:15;86.00;;;50.05;;
38783;SDS011;24531;45.502;12.238;2024-01-15T06:19:41;81.15;;;46.80;;
38783;SDS011;24531;45.502;12.238;2024-01-15T06:22:06;81.80;;;48.70;;
38783;SDS011;24531;45.502;12.238;2024-01-15T06:24:32;82.93;;;47.92;;
38783;SDS011;24531;45.502;12.238;2024-01-15T06:26:58;84.03;;;46.90;;
38783;SDS011;24531;45.502;12.238;2024-01-15T06:29:25;86.53;;;49.05;;
38783;SDS011;24531;45.502;12.238;2024-01-15T06:31:52;84.40;;;49.83;;
38783;SDS011;24531;45.502;12.238;2024-01-15T06:34:17;83.65;;;49.08;;
38783;SDS011;24531;45.502;12.238;2024-01-15T06:36:43;84.43;;;49.65;;
38783;SDS011;24531;45.502;12.238;2024-01-15T06:39:09;79.25;;;47.15;;
38783;SDS011;24531;45.502;12.238;2024-01-15T06:41:35;83.25;;;47.70;;
38783;SDS011;24531;45.502;12.238;2024-01-15T06:44:06;82.60;;;48.38;;
38783;SDS011;24531;45.502;12.238;2024-01-15T06:46:32;81.68;;;51.42;;
38783;SDS011;24531;45.502;12.238;2024-01-15T06:48:57;89.93;;;49.67;;
38783;SDS011;24531;45.502;12.238;2024-01-15T06:51:23;81.97;;;48.05;;
38783;SDS011;24531;45.502;12.238;2024-01-15T06:53:49;78.75;;;48.92;;
38783;SDS011;24531;45.502;12.238;2024-01-15T06:56:14;82.10;;;47.38;;
38783;SDS011;24531;45.502;12.238;2024-01-15T06:58:40;80.95;;;48.33;;
38783;SDS011;24531;45.502;12.238;2024-01-15T07:01:05;81.75;;;49.30;;
38783;SDS011;24531;45.502;12.238;2024-01-15T07:03:32;95.07;;;57.60;;
38783;SDS011;24531;45.502;12.238;2024-01-15T07:05:58;84.47;;;49.67;;
38783;SDS011;24531;45.502;12.238;2024-01-15T07:08:24;128.38;;;75.13;;
38783;SDS011;24531;45.502;12.238;2024-01-15T07:10:49;117.90;;;65.13;;
38783;SDS011;24531;45.502;12.238;2024-01-15T07:13:15;96.53;;;55.33;;
38783;SDS011;24531;45.502;12.238;2024-01-15T07:15:40;90.95;;;51.35;;
38783;SDS011;24531;45.502;12.238;2024-01-15T07:18:06;93.68;;;55.08;;
38783;SDS011;24531;45.502;12.238;2024-01-15T07:20:31;95.15;;;56.47;;
38783;SDS011;24531;45.502;12.238;2024-01-15T07:22:57;89.63;;;50.42;;
38783;SDS011;24531;45.502;12.238;2024-01-15T07:25:23;83.53;;;48.05;;
38783;SDS011;24531;45.502;12.238;2024-01-15T07:27:50;89.72;;;51.63;;
38783;SDS011;24531;45.502;12.238;2024-01-15T07:30:16;85.50;;;50.00;;
38783;SDS011;24531;45.502;12.238;2024-01-15T07:32:42;80.85;;;47.70;;
38783;SDS011;24531;45.502;12.238;2024-01-15T07:35:07;80.25;;;45.92;;
38783;SDS011;24531;45.502;12.238;2024-01-15T07:37:33;79.50;;;47.92;;
38783;SDS011;24531;45.502;12.238;2024-01-15T07:39:59;85.82;;;48.05;;
38783;SDS011;24531;45.502;12.238;2024-01-15T07:42:25;80.78;;;47.22;;
38783;SDS011;24531;45.502;12.238;2024-01-15T07:44:50;85.85;;;50.50;;
38783;SDS011;24531;45.502;12.238;2024-01-15T07:47:16;82.95;;;50.13;;
38783;SDS011;24531;45.502;12.238;2024-01-15T07:49:42;83.07;;;49.03;;
38783;SDS011;24531;45.502;12.238;2024-01-15T07:52:07;83.15;;;48.70;;
38783;SDS011;24531;45.502;12.238;2024-01-15T07:54:35;83.05;;;48.13;;
38783;SDS011;24531;45.502;12.238;2024-01-15T07:57:01;81.65;;;48.40;;
38783;SDS011;24531;45.502;12.238;2024-01-15T07:59:28;90.40;;;46.60;;
38783;SDS011;24531;45.502;12.238;2024-01-15T08:01:54;75.68;;;44.78;;
38783;SDS011;24531;45.502;12.238;2024-01-15T08:04:20;79.47;;;45.55;;
38783;SDS011;24531;45.502;12.238;2024-01-15T08:06:46;74.30;;;44.20;;
38783;SDS011;24531;45.502;12.238;2024-01-15T08:09:12;72.45;;;41.83;;
38783;SDS011;24531;45.502;12.238;2024-01-15T08:11:41;67.18;;;41.42;;
38783;SDS011;24531;45.502;12.238;2024-01-15T08:14:08;70.68;;;40.75;;
38783;SDS011;24531;45.502;12.238;2024-01-15T08:16:35;68.45;;;42.13;;
38783;SDS011;24531;45.502;12.238;2024-01-15T08:19:04;78.25;;;43.90;;
38783;SDS011;24531;45.502;12.238;2024-01-15T08:21:30;77.07;;;45.00;;
38783;SDS011;24531;45.502;12.238;2024-01-15T08:23:57;72.35;;;42.85;;
38783;SDS011;24531;45.502;12.238;2024-01-15T08:26:23;72.07;;;40.92;;
38783;SDS011;24531;45.502;12.238;2024-01-15T08:28:49;72.90;;;42.60;;
38783;SDS011;24531;45.502;12.238;2024-01-15T08:31:14;69.20;;;40.60;;
38783;SDS011;24531;45.502;12.238;2024-01-15T08:33:40;66.45;;;41.53;;
38783;SDS011;24531;45.502;12.238;2024-01-15T08:36:06;74.05;;;42.88;;
38783;SDS011;24531;45.502;12.238;2024-01-15T08:38:31;69.38;;;40.90;;
38783;SDS011;24531;45.502;12.238;2024-01-15T08:40:57;65.60;;;39.60;;
38783;SDS011;24531;45.502;12.238;2024-01-15T08:43:25;70.60;;;40.35;;
38783;SDS011;24531;45.502;12.238;2024-01-15T08:45:51;68.68;;;37.83;;
38783;SDS011;24531;45.502;12.238;2024-01-15T08:48:17;58.60;;;36.30;;
38783;SDS011;24531;45.502;12.238;2024-01-15T08:50:43;60.83;;;36.85;;
38783;SDS011;24531;45.502;12.238;2024-01-15T08:53:11;65.22;;;37.45;;
38783;SDS011;24531;45.502;12.238;2024-01-15T08:55:37;57.25;;;36.08;;
38783;SDS011;24531;45.502;12.238;2024-01-15T08:58:03;61.28;;;35.60;;
38783;SDS011;24531;45.502;12.238;2024-01-15T09:00:28;57.38;;;36.22;;
38783;SDS011;24531;45.502;12.238;2024-01-15T09:02:55;62.17;;;37.25;;
38783;SDS011;24531;45.502;12.238;2024-01-15T09:05:21;58.45;;;35.72;;
38783;SDS011;24531;45.502;12.238;2024-01-15T09:07:47;58.38;;;36.33;;
38783;SDS011;24531;45.502;12.238;2024-01-15T09:10:13;68.78;;;37.33;;
38783;SDS011;24531;45.502;12.238;2024-01-15T09:12:39;57.97;;;34.55;;
38783;SDS011;24531;45.502;12.238;2024-01-15T09:15:05;63.72;;;35.70;;
38783;SDS011;24531;45.502;12.238;2024-01-15T09:17:33;66.03;;;38.17;;
38783;SDS011;24531;45.502;12.238;2024-01-15T09:19:59;64.05;;;37.20;;
38783;SDS011;24531;45.502;12.238;2024-01-15T09:22:25;55.42;;;34.08;;
38783;SDS011;24531;45.502;12.238;2024-01-15T09:24:51;61.35;;;34.70;;
38783;SDS011;24531;45.502;12.238;2024-01-15T09:27:17;59.05;;;36.08;;
38783;SDS011;24531;45.502;12.238;2024-01-15T09:29:43;63.35;;;37.30;;
38783;SDS011;24531;45.502;12.238;2024-01-15T09:32:10;63.42;;;37.53;;
38783;SDS011;24531;45.502;12.238;2024-01-15T09:34:37;71.10;;;40.75;;
38783;SDS011;24531;45.502;12.238;2024-01-15T09:37:03;69.97;;;36.38;;
38783;SDS011;24531;45.502;12.238;2024-01-15T09:39:29;68.05;;;39.13;;
38783;SDS011;24531;45.502;12.238;2024-01-15T09:41:55;69.72;;;38.20;;
38783;SDS011;24531;45.502;12.238;2024-01-15T09:44:22;67.85;;;37.15;;
38783;SDS011;24531;45.502;12.238;2024-01-15T09:46:48;61.90;;;36.95;;
38783;SDS011;24531;45.502;12.238;2024-01-15T09:49:17;61.13;;;35.47;;
38783;SDS011;24531;45.502;12.238;2024-01-15T09:51:43;79.50;;;42.72;;
38783;SDS011;24531;45.502;12.238;2024-01-15T09:54:09;127.20;;;61.03;;
38783;SDS011;24531;45.502;12.238;2024-01-15T09:56:38;111.05;;;54.33;;
38783;SDS011;24531;45.502;12.238;2024-01-15T09:59:04;84.10;;;44.10;;
38783;SDS011;24531;45.502;12.238;2024-01-15T10:01:31;79.90;;;41.80;;
38783;SDS011;24531;45.502;12.238;2024-01-15T10:03:57;68.93;;;39.67;;
38783;SDS011;24531;45.502;12.238;2024-01-15T10:06:23;66.75;;;39.03;;
38783;SDS011;24531;45.502;12.238;2024-01-15T10:08:52;67.63;;;39.80;;
38783;SDS011;24531;45.502;12.238;2024-01-15T10:11:19;67.60;;;39.13;;
38783;SDS011;24531;45.502;12.238;2024-01-15T10:13:45;70.60;;;37.85;;
38783;SDS011;24531;45.502;12.238;2024-01-15T10:16:11;59.25;;;36.90;;
38783;SDS011;24531;45.502;12.238;2024-01-15T10:18:37;64.38;;;37.92;;
38783;SDS011;24531;45.502;12.238;2024-01-15T10:21:05;69.25;;;39.85;;
38783;SDS011;24531;45.502;12.238;2024-01-15T10:23:32;68.88;;;37.72;;
38783;SDS011;24531;45.502;12.238;2024-01-15T10:25:58;69.82;;;39.95;;
38783;SDS011;24531;45.502;12.238;2024-01-15T10:28:25;67.30;;;38.95;;
38783;SDS011;24531;45.502;12.238;2024-01-15T10:30:55;66.03;;;38.47;;
38783;SDS011;24531;45.502;12.238;2024-01-15T10:33:22;64.65;;;39.15;;
38783;SDS011;24531;45.502;12.238;2024-01-15T10:35:53;66.20;;;38.28;;
38783;SDS011;24531;45.502;12.238;2024-01-15T10:38:20;64.18;;;38.10;;
38783;SDS011;24531;45.502;12.238;2024-01-15T10:40:47;71.25;;;39.83;;
38783;SDS011;24531;45.502;12.238;2024-01-15T10:43:15;64.57;;;38.60;;
38783;SDS011;24531;45.502;12.238;2024-01-15T10:45:43;64.82;;;39.70;;
38783;SDS011;24531;45.502;12.238;2024-01-15T10:48:12;63.47;;;37.83;;
38783;SDS011;24531;45.502;12.238;2024-01-15T10:50:39;63.45;;;37.67;;
38783;SDS011;24531;45.502;12.238;2024-01-15T10:53:05;69.05;;;40.53;;
38783;SDS011;24531;45.502;12.238;2024-01-15T10:55:34;68.90;;;38.00;;
38783;SDS011;24531;45.502;12.238;2024-01-15T10:58:01;64.95;;;40.42;;
38783;SDS011;24531;45.502;12.238;2024-01-15T11:00:28;67.95;;;38.05;;
38783;SDS011;24531;45.502;12.238;2024-01-15T11:02:54;68.35;;;40.25;;
38783;SDS011;24531;45.502;12.238;2024-01-15T11:05:20;67.28;;;39.97;;
38783;SDS011;24531;45.502;12.238;2024-01-15T11:07:48;69.38;;;41.70;;
38783;SDS011;24531;45.502;12.238;2024-01-15T11:10:59;63.67;;;39.03;;
38783;SDS011;24531;45.502;12.238;2024-01-15T11:16:02;65.63;;;38.47;;
38783;SDS011;24531;45.502;12.238;2024-01-15T11:18:40;64.88;;;40.08;;
38783;SDS011;24531;45.502;12.238;2024-01-15T11:23:43;65.25;;;40.10;;
38783;SDS011;24531;45.502;12.238;2024-01-15T11:27:11;66.75;;;39.22;;
38783;SDS011;24531;45.502;12.238;2024-01-15T11:29:06;66.20;;;38.67;;
38783;SDS011;24531;45.502;12.238;2024-01-15T11:34:05;67.97;;;40.65;;
38783;SDS011;24531;45.502;12.238;2024-01-15T11:41:57;66.90;;;41.30;;
38783;SDS011;24531;45.502;12.238;2024-01-15T11:52:21;62.97;;;38.00;;
38783;SDS011;24531;45.502;12.238;2024-01-15T12:00:16;62.25;;;37.30;;
38783;SDS011;24531;45.502;12.238;2024-01-15T12:02:42;68.53;;;37.53;;
38783;SDS011;24531;45.502;12.238;2024-01-15T12:05:10;64.85;;;40.00;;
38783;SDS011;24531;45.502;12.238;2024-01-15T12:07:46;62.55;;;37.55;;
38783;SDS011;24531;45.502;12.238;2024-01-15T12:10:16;69.22;;;40.72;;
38783;SDS011;24531;45.502;12.238;2024-01-15T12:15:14;64.15;;;37.20;;
38783;SDS011;24531;45.502;12.238;2024-01-15T12:17:40;65.38;;;40.63;;
38783;SDS011;24531;45.502;12.238;2024-01-15T12:20:06;67.68;;;38.42;;
38783;SDS011;24531;45.502;12.238;2024-01-15T12:22:32;65.28;;;39.83;;
38783;SDS011;24531;45.502;12.238;2024-01-15T12:24:58;67.30;;;39.45;;
38783;SDS011;24531;45.502;12.238;2024-01-15T12:27:23;68.60;;;39.63;;
38783;SDS011;24531;45.502;12.238;2024-01-15T12:29:49;66.28;;;39.20;;
38783;SDS011;24531;45.502;12.238;2024-01-15T12:32:15;64.25;;;40.08;;
38783;SDS011;24531;45.502;12.238;2024-01-15T12:34:41;69.50;;;42.05;;
38783;SDS011;24531;45.502;12.238;2024-01-15T12:37:08;68.75;;;42.90;;
38783;SDS011;24531;45.502;12.238;2024-01-15T12:39:34;66.57;;;41.90;;
38783;SDS011;24531;45.502;12.238;2024-01-15T12:42:01;88.30;;;59.33;;
38783;SDS011;24531;45.502;12.238;2024-01-15T12:44:27;92.45;;;55.50;;
38783;SDS011;24531;45.502;12.238;2024-01-15T12:46:53;81.90;;;47.85;;
38783;SDS011;24531;45.502;12.238;2024-01-15T12:49:19;113.80;;;66.05;;
38783;SDS011;24531;45.502;12.238;2024-01-15T12:51:51;95.40;;;54.70;;
38783;SDS011;24531;45.502;12.238;2024-01-15T12:54:22;104.53;;;63.13;;
38783;SDS011;24531;45.502;12.238;2024-01-15T12:56:49;100.43;;;61.58;;
38783;SDS011;24531;45.502;12.238;2024-01-15T12:59:14;90.28;;;49.97;;
38783;SDS011;24531;45.502;12.238;2024-01-15T13:01:40;85.03;;;48.72;;
38783;SDS011;24531;45.502;12.238;2024-01-15T13:04:06;81.35;;;50.65;;
38783;SDS011;24531;45.502;12.238;2024-01-15T13:06:35;86.75;;;52.75;;
38783;SDS011;24531;45.502;12.238;2024-01-15T13:09:02;81.95;;;50.95;;
38783;SDS011;24531;45.502;12.238;2024-01-15T13:11:32;87.40;;;52.30;;
38783;SDS011;24531;45.502;12.238;2024-01-15T13:13:58;78.15;;;47.90;;
38783;SDS011;24531;45.502;12.238;2024-01-15T13:16:23;71.78;;;46.00;;
38783;SDS011;24531;45.502;12.238;2024-01-15T13:18:52;71.28;;;44.90;;
38783;SDS011;24531;45.502;12.238;2024-01-15T13:21:17;78.75;;;46.13;;
38783;SDS011;24531;45.502;12.238;2024-01-15T13:23:43;71.10;;;44.38;;
38783;SDS011;24531;45.502;12.238;2024-01-15T13:26:08;68.68;;;42.78;;
38783;SDS011;24531;45.502;12.238;2024-01-15T13:28:34;75.88;;;46.35;;
38783;SDS011;24531;45.502;12.238;2024-01-15T13:31:00;74.65;;;44.08;;
38783;SDS011;24531;45.502;12.238;2024-01-15T13:33:26;79.18;;;46.38;;
38783;SDS011;24531;45.502;12.238;2024-01-15T13:35:52;74.53;;;43.92;;
38783;SDS011;24531;45.502;12.238;2024-01-15T13:38:17;67.97;;;42.42;;
38783;SDS011;24531;45.502;12.238;2024-01-15T13:40:43;76.32;;;44.05;;
38783;SDS011;24531;45.502;12.238;2024-01-15T13:43:10;72.75;;;44.97;;
38783;SDS011;24531;45.502;12.238;2024-01-15T13:45:36;69.05;;;43.25;;
38783;SDS011;24531;45.502;12.238;2024-01-15T13:48:02;75.88;;;46.63;;
38783;SDS011;24531;45.502;12.238;2024-01-15T13:50:30;81.38;;;46.80;;
38783;SDS011;24531;45.502;12.238;2024-01-15T13:52:56;67.38;;;44.88;;
38783;SDS011;24531;45.502;12.238;2024-01-15T13:55:22;74.43;;;43.97;;
38783;SDS011;24531;45.502;12.238;2024-01-15T13:57:48;74.75;;;44.95;;
38783;SDS011;24531;45.502;12.238;2024-01-15T14:00:14;71.70;;;46.20;;
38783;SDS011;24531;45.502;12.238;2024-01-15T14:02:43;74.88;;;46.38;;
38783;SDS011;24531;45.502;12.238;2024-01-15T14:05:09;75.68;;;46.45;;
38783;SDS011;24531;45.502;12.238;2024-01-15T14:07:37;71.63;;;44.30;;
38783;SDS011;24531;45.502;12.238;2024-01-15T14:10:08;77.38;;;44.75;;
38783;SDS011;24531;45.502;12.238;2024-01-15T14:12:35;71.13;;;44.80;;
38783;SDS011;24531;45.502;12.238;2024-01-15T14:15:02;74.47;;;46.22;;
38783;SDS011;24531;45.502;12.238;2024-01-15T14:17:28;73.50;;;46.45;;
38783;SDS011;24531;45.502;12.238;2024-01-15T14:19:54;71.82;;;44.50;;
38783;SDS011;24531;45.502;12.238;2024-01-15T14:22:19;76.85;;;46.45;;
38783;SDS011;24531;45.502;12.238;2024-01-15T14:24:45;82.32;;;46.97;;
38783;SDS011;24531;45.502;12.238;2024-01-15T14:27:11;77.18;;;45.30;;
38783;SDS011;24531;45.502;12.238;2024-01-15T14:29:36;78.47;;;46.55;;
38783;SDS011;24531;45.502;12.238;2024-01-15T14:32:03;74.38;;;46.63;;